SBW2402 EPWA-BGSF
Flight info
| Callsign | SBW2402 |
|---|---|
| Flight time | N/A |
| Altitude | 36000 |
| Route | OLILA L621 LUSID DCT KULUD L621 LAGUM DCT PEVEB DCT EPOTU DCT ERSER/M081F360 DCT 6410N DCT 66N023W 67N036W |
| Aircraft | B77W/H-SDE1E2E3FGHIJ2J3J4J5M1RWXY/LB1D1 |
Departure
| Time | N/A |
|---|---|
| Airport | Warsaw Chopin Airport (EPWA) |
Arrival
| Time | 2026-04-12 12:22 |
|---|---|
| Airport | Kangerlussuaq International Airport (BGSF) |
| Time | Latitude | Longitude | Altitude | Speed | Heading |
|---|---|---|---|---|---|
| 2026-04-12 09:06 | 52.94438 | 19.86722 | 33994 ft | 405 kts | 313° |
| 2026-04-12 09:06 | 52.96242 | 19.83117 | 34322 ft | 405 kts | 313° |
| 2026-04-12 09:06 | 52.98036 | 19.79526 | 34565 ft | 407 kts | 313° |
| 2026-04-12 09:06 | 52.99850 | 19.75893 | 34799 ft | 408 kts | 313° |
| 2026-04-12 09:07 | 53.01659 | 19.72265 | 35039 ft | 410 kts | 313° |
| 2026-04-12 09:07 | 53.03481 | 19.68605 | 35275 ft | 411 kts | 312° |
| 2026-04-12 09:07 | 53.05309 | 19.64949 | 35476 ft | 412 kts | 313° |
| 2026-04-12 09:08 | 53.09412 | 19.58159 | 35680 ft | 419 kts | 318° |
| 2026-04-12 09:08 | 53.11554 | 19.54895 | 35980 ft | 418 kts | 318° |
| 2026-04-12 09:08 | 53.13703 | 19.51616 | 36121 ft | 421 kts | 318° |
| 2026-04-12 09:09 | 53.18041 | 19.44967 | 36208 ft | 424 kts | 318° |
| 2026-04-12 09:09 | 53.22351 | 19.38313 | 36201 ft | 420 kts | 318° |
| 2026-04-12 09:10 | 53.26618 | 19.31701 | 36200 ft | 418 kts | 318° |
| 2026-04-12 09:10 | 53.30883 | 19.25075 | 36195 ft | 418 kts | 318° |
| 2026-04-12 09:11 | 53.35143 | 19.18439 | 36199 ft | 419 kts | 317° |
| 2026-04-12 09:11 | 53.39376 | 19.11819 | 36197 ft | 420 kts | 317° |
| 2026-04-12 09:12 | 53.43648 | 19.05119 | 36197 ft | 421 kts | 317° |
| 2026-04-12 09:12 | 53.47933 | 18.98385 | 36197 ft | 423 kts | 317° |
| 2026-04-12 09:13 | 53.52219 | 18.91625 | 36201 ft | 423 kts | 317° |
| 2026-04-12 09:13 | 53.56507 | 18.84852 | 36202 ft | 424 kts | 317° |
| 2026-04-12 09:14 | 53.60798 | 18.78037 | 36204 ft | 425 kts | 317° |
| 2026-04-12 09:14 | 53.65101 | 18.71186 | 36204 ft | 425 kts | 317° |
| 2026-04-12 09:15 | 53.69399 | 18.64337 | 36201 ft | 426 kts | 317° |
| 2026-04-12 09:15 | 53.73712 | 18.57437 | 36207 ft | 427 kts | 316° |
| 2026-04-12 09:16 | 53.78027 | 18.50511 | 36201 ft | 427 kts | 316° |
| 2026-04-12 09:16 | 53.82331 | 18.43581 | 36203 ft | 428 kts | 316° |
| 2026-04-12 09:17 | 53.86651 | 18.36620 | 36205 ft | 429 kts | 316° |
| 2026-04-12 09:17 | 53.90960 | 18.29642 | 36187 ft | 429 kts | 316° |
| 2026-04-12 09:18 | 53.95269 | 18.22645 | 36206 ft | 428 kts | 316° |
| 2026-04-12 09:18 | 53.99570 | 18.15629 | 36201 ft | 429 kts | 316° |
| 2026-04-12 09:19 | 54.03837 | 18.08653 | 36212 ft | 428 kts | 316° |
| 2026-04-12 09:19 | 54.08129 | 18.01621 | 36218 ft | 429 kts | 316° |
| 2026-04-12 09:20 | 54.14582 | 17.91011 | 36205 ft | 430 kts | 316° |
| 2026-04-12 09:21 | 54.21026 | 17.80360 | 36206 ft | 430 kts | 316° |
| 2026-04-12 09:21 | 54.25311 | 17.73249 | 36205 ft | 430 kts | 316° |
| 2026-04-12 09:22 | 54.29601 | 17.66110 | 36202 ft | 430 kts | 315° |
| 2026-04-12 09:22 | 54.33885 | 17.58964 | 36199 ft | 430 kts | 315° |
| 2026-04-12 09:23 | 54.38166 | 17.51804 | 36201 ft | 430 kts | 315° |
| 2026-04-12 09:23 | 54.42410 | 17.44668 | 36212 ft | 429 kts | 315° |
| 2026-04-12 09:24 | 54.46670 | 17.37490 | 36220 ft | 429 kts | 315° |
| 2026-04-12 09:24 | 54.50926 | 17.30297 | 36214 ft | 429 kts | 315° |
| 2026-04-12 09:25 | 54.55188 | 17.23073 | 36212 ft | 430 kts | 315° |
| 2026-04-12 09:25 | 54.59457 | 17.15817 | 36212 ft | 431 kts | 315° |
| 2026-04-12 09:26 | 54.63730 | 17.08530 | 36213 ft | 432 kts | 314° |
| 2026-04-12 09:26 | 54.68005 | 17.01217 | 36215 ft | 433 kts | 314° |
| 2026-04-12 09:27 | 54.72276 | 16.93888 | 36211 ft | 433 kts | 314° |
| 2026-04-12 09:27 | 54.76545 | 16.86536 | 36210 ft | 433 kts | 314° |
| 2026-04-12 09:28 | 54.80808 | 16.79171 | 36213 ft | 433 kts | 314° |
| 2026-04-12 09:28 | 54.85051 | 16.71820 | 36205 ft | 434 kts | 314° |
| 2026-04-12 09:29 | 54.89339 | 16.64367 | 36201 ft | 434 kts | 314° |
| 2026-04-12 09:29 | 54.93571 | 16.56989 | 36204 ft | 434 kts | 314° |
| 2026-04-12 09:30 | 54.97857 | 16.49493 | 36203 ft | 434 kts | 314° |
| 2026-04-12 09:30 | 55.02087 | 16.42070 | 36181 ft | 435 kts | 314° |
| 2026-04-12 09:31 | 55.06344 | 16.34575 | 36170 ft | 436 kts | 313° |
| 2026-04-12 09:31 | 55.10604 | 16.27047 | 36167 ft | 436 kts | 313° |
| 2026-04-12 09:32 | 55.14864 | 16.19500 | 36180 ft | 436 kts | 313° |
| 2026-04-12 09:32 | 55.19116 | 16.11947 | 36182 ft | 437 kts | 313° |
| 2026-04-12 09:33 | 55.22667 | 16.05618 | 36185 ft | 437 kts | 313° |
| 2026-04-12 09:33 | 55.26927 | 15.97997 | 36181 ft | 438 kts | 313° |
| 2026-04-12 09:34 | 55.31193 | 15.90347 | 36187 ft | 439 kts | 313° |
| 2026-04-12 09:34 | 55.35466 | 15.82656 | 36180 ft | 440 kts | 312° |
| 2026-04-12 09:35 | 55.39747 | 15.74926 | 36175 ft | 441 kts | 312° |
| 2026-04-12 09:35 | 55.43994 | 15.67230 | 36173 ft | 442 kts | 312° |
| 2026-04-12 09:36 | 55.48274 | 15.59449 | 36181 ft | 442 kts | 312° |
| 2026-04-12 09:36 | 55.52546 | 15.51656 | 36174 ft | 442 kts | 312° |
| 2026-04-12 09:37 | 55.57565 | 15.42472 | 36177 ft | 442 kts | 312° |
| 2026-04-12 09:37 | 55.66077 | 15.26813 | 36186 ft | 442 kts | 311° |
| 2026-04-12 09:38 | 55.74570 | 15.11076 | 36174 ft | 442 kts | 311° |
| 2026-04-12 09:38 | 55.83056 | 14.95249 | 36170 ft | 442 kts | 311° |
| 2026-04-12 09:39 | 55.91526 | 14.79348 | 36166 ft | 442 kts | 310° |
| 2026-04-12 09:39 | 55.99956 | 14.63407 | 36172 ft | 442 kts | 310° |
| 2026-04-12 09:40 | 56.08345 | 14.47443 | 36157 ft | 444 kts | 310° |
| 2026-04-12 09:40 | 56.16854 | 14.31132 | 36169 ft | 446 kts | 309° |
| 2026-04-12 09:41 | 56.25321 | 14.14790 | 36159 ft | 447 kts | 309° |
| 2026-04-12 09:41 | 56.33729 | 13.98454 | 36156 ft | 448 kts | 309° |
| 2026-04-12 09:42 | 56.42189 | 13.81896 | 36129 ft | 448 kts | 309° |
| 2026-04-12 09:42 | 56.50617 | 13.65284 | 36132 ft | 449 kts | 309° |
| 2026-04-12 09:43 | 56.67464 | 13.31730 | 36126 ft | 451 kts | 308° |
| 2026-04-12 09:44 | 56.75895 | 13.14748 | 36132 ft | 452 kts | 308° |
| 2026-04-12 09:44 | 56.84326 | 12.97648 | 36127 ft | 454 kts | 308° |
| 2026-04-12 09:45 | 56.92771 | 12.80394 | 36128 ft | 456 kts | 307° |
| 2026-04-12 09:45 | 57.01220 | 12.63004 | 36125 ft | 458 kts | 307° |
| 2026-04-12 09:46 | 57.09678 | 12.45470 | 36123 ft | 459 kts | 307° |
| 2026-04-12 09:46 | 57.18083 | 12.27906 | 36115 ft | 461 kts | 307° |
| 2026-04-12 09:47 | 57.26555 | 12.10077 | 36112 ft | 463 kts | 307° |
| 2026-04-12 09:47 | 57.35046 | 11.92071 | 36099 ft | 465 kts | 306° |
| 2026-04-12 09:48 | 57.43542 | 11.73912 | 36103 ft | 467 kts | 306° |
| 2026-04-12 09:48 | 57.52038 | 11.55611 | 36105 ft | 469 kts | 306° |
| 2026-04-12 09:49 | 57.60545 | 11.37149 | 36106 ft | 470 kts | 306° |
| 2026-04-12 09:49 | 57.69040 | 11.18561 | 36106 ft | 471 kts | 305° |
| 2026-04-12 09:50 | 57.77525 | 10.99850 | 36098 ft | 470 kts | 305° |
| 2026-04-12 09:50 | 57.85965 | 10.81089 | 36101 ft | 471 kts | 304° |
| 2026-04-12 09:51 | 57.94333 | 10.62341 | 36094 ft | 472 kts | 304° |
| 2026-04-12 09:51 | 58.02737 | 10.43355 | 36090 ft | 473 kts | 304° |
| 2026-04-12 09:52 | 58.11169 | 10.24160 | 36096 ft | 475 kts | 304° |
| 2026-04-12 09:52 | 58.19596 | 10.04809 | 36079 ft | 478 kts | 303° |
| 2026-04-12 09:53 | 58.28036 | 9.85281 | 36082 ft | 479 kts | 303° |
| 2026-04-12 09:53 | 58.36461 | 9.65611 | 36069 ft | 480 kts | 303° |
| 2026-04-12 09:54 | 58.44882 | 9.45794 | 36054 ft | 482 kts | 303° |
| 2026-04-12 09:54 | 58.53325 | 9.25751 | 36046 ft | 484 kts | 303° |
| 2026-04-12 09:55 | 58.61753 | 9.05573 | 36041 ft | 487 kts | 303° |
| 2026-04-12 09:55 | 58.70154 | 8.85288 | 36056 ft | 490 kts | 303° |
| 2026-04-12 09:56 | 58.78628 | 8.64647 | 36054 ft | 493 kts | 303° |
| 2026-04-12 09:56 | 58.87134 | 8.43744 | 36056 ft | 496 kts | 303° |
| 2026-04-12 09:57 | 58.95640 | 8.22659 | 36032 ft | 498 kts | 303° |
| 2026-04-12 09:57 | 59.04147 | 8.01376 | 36029 ft | 499 kts | 303° |
| 2026-04-12 09:58 | 59.12639 | 7.79935 | 36003 ft | 501 kts | 303° |
| 2026-04-12 09:58 | 59.21137 | 7.58286 | 35984 ft | 502 kts | 303° |
| 2026-04-12 09:59 | 59.29600 | 7.36525 | 35975 ft | 504 kts | 303° |
| 2026-04-12 09:59 | 59.38056 | 7.14579 | 35972 ft | 505 kts | 302° |
| 2026-04-12 10:00 | 59.46496 | 6.92466 | 35948 ft | 505 kts | 302° |
| 2026-04-12 10:00 | 59.54845 | 6.70387 | 35880 ft | 506 kts | 302° |
| 2026-04-12 10:01 | 59.63210 | 6.48053 | 35893 ft | 506 kts | 302° |
| 2026-04-12 10:01 | 59.71390 | 6.26004 | 35861 ft | 507 kts | 302° |
| 2026-04-12 10:02 | 59.75574 | 6.14643 | 35879 ft | 507 kts | 302° |
| 2026-04-12 10:02 | 59.79718 | 6.03340 | 35865 ft | 508 kts | 302° |
| 2026-04-12 10:03 | 59.83843 | 5.92035 | 35866 ft | 509 kts | 302° |
| 2026-04-12 10:03 | 59.87993 | 5.80608 | 35843 ft | 510 kts | 301° |
| 2026-04-12 10:04 | 59.92139 | 5.69133 | 35841 ft | 510 kts | 301° |
| 2026-04-12 10:04 | 59.96271 | 5.57641 | 35835 ft | 510 kts | 301° |
| 2026-04-12 10:05 | 60.00390 | 5.46130 | 35841 ft | 509 kts | 301° |
| 2026-04-12 10:05 | 60.04487 | 5.34621 | 35830 ft | 509 kts | 301° |
| 2026-04-12 10:06 | 60.08584 | 5.23056 | 35838 ft | 509 kts | 301° |
| 2026-04-12 10:06 | 60.12684 | 5.11424 | 35837 ft | 511 kts | 301° |
| 2026-04-12 10:07 | 60.16778 | 4.99754 | 35835 ft | 512 kts | 301° |
| 2026-04-12 10:07 | 60.20878 | 4.87998 | 35837 ft | 514 kts | 301° |
| 2026-04-12 10:08 | 60.24980 | 4.76193 | 35827 ft | 515 kts | 301° |
| 2026-04-12 10:08 | 60.29076 | 4.64341 | 35821 ft | 515 kts | 301° |
| 2026-04-12 10:09 | 60.33134 | 4.52532 | 35812 ft | 515 kts | 301° |
| 2026-04-12 10:09 | 60.37203 | 4.40636 | 35802 ft | 515 kts | 301° |
| 2026-04-12 10:10 | 60.41290 | 4.28624 | 35790 ft | 514 kts | 300° |
| 2026-04-12 10:10 | 60.45305 | 4.16768 | 35771 ft | 514 kts | 300° |
| 2026-04-12 10:11 | 60.49327 | 4.04828 | 35761 ft | 513 kts | 300° |
| 2026-04-12 10:11 | 60.53338 | 3.92851 | 35754 ft | 512 kts | 300° |
| 2026-04-12 10:12 | 60.57323 | 3.80889 | 35748 ft | 511 kts | 300° |
| 2026-04-12 10:12 | 60.61302 | 3.68896 | 35748 ft | 511 kts | 300° |
| 2026-04-12 10:13 | 60.65278 | 3.56846 | 35752 ft | 512 kts | 300° |
| 2026-04-12 10:13 | 60.69240 | 3.44772 | 35748 ft | 513 kts | 300° |
| 2026-04-12 10:14 | 60.73212 | 3.32605 | 35747 ft | 515 kts | 300° |
| 2026-04-12 10:14 | 60.77181 | 3.20387 | 35740 ft | 516 kts | 300° |
| 2026-04-12 10:15 | 60.81152 | 3.08099 | 35734 ft | 517 kts | 300° |
| 2026-04-12 10:15 | 60.85110 | 2.95782 | 35734 ft | 518 kts | 300° |
| 2026-04-12 10:16 | 60.89063 | 2.83415 | 35720 ft | 518 kts | 300° |
| 2026-04-12 10:16 | 60.93007 | 2.71006 | 35709 ft | 518 kts | 299° |
| 2026-04-12 10:17 | 60.96935 | 2.58588 | 35695 ft | 518 kts | 299° |
| 2026-04-12 10:17 | 61.00827 | 2.46221 | 35693 ft | 517 kts | 299° |
| 2026-04-12 10:18 | 61.04730 | 2.33746 | 35690 ft | 517 kts | 299° |
| 2026-04-12 10:18 | 61.08619 | 2.21241 | 35695 ft | 518 kts | 299° |
| 2026-04-12 10:19 | 61.12496 | 2.08709 | 35687 ft | 518 kts | 299° |
| 2026-04-12 10:19 | 61.16374 | 1.96111 | 35682 ft | 519 kts | 299° |
| 2026-04-12 10:20 | 61.20241 | 1.83476 | 35671 ft | 520 kts | 299° |
| 2026-04-12 10:20 | 61.24105 | 1.70786 | 35664 ft | 520 kts | 299° |
| 2026-04-12 10:21 | 61.27943 | 1.58115 | 35664 ft | 521 kts | 298° |
| 2026-04-12 10:21 | 61.31781 | 1.45365 | 35664 ft | 520 kts | 298° |
| 2026-04-12 10:22 | 61.35615 | 1.32563 | 35667 ft | 521 kts | 298° |
| 2026-04-12 10:22 | 61.39435 | 1.19731 | 35666 ft | 521 kts | 298° |
| 2026-04-12 10:23 | 61.43250 | 1.06838 | 35668 ft | 521 kts | 298° |
| 2026-04-12 10:23 | 61.47055 | 0.93921 | 35666 ft | 522 kts | 298° |
| 2026-04-12 10:24 | 61.50207 | 0.83164 | 35663 ft | 522 kts | 298° |
| 2026-04-12 10:24 | 61.53985 | 0.70189 | 35665 ft | 522 kts | 298° |
| 2026-04-12 10:25 | 61.57752 | 0.57182 | 35645 ft | 522 kts | 298° |
| 2026-04-12 10:25 | 61.61516 | 0.44120 | 35637 ft | 523 kts | 298° |
| 2026-04-12 10:26 | 61.65273 | 0.30998 | 35638 ft | 524 kts | 298° |
| 2026-04-12 10:26 | 61.69024 | 0.17821 | 35629 ft | 525 kts | 297° |
| 2026-04-12 10:27 | 61.72767 | 0.04603 | 35630 ft | 525 kts | 297° |
| 2026-04-12 10:27 | 61.76500 | -0.08663 | 35636 ft | 525 kts | 297° |
| 2026-04-12 10:28 | 61.80193 | -0.21864 | 35605 ft | 525 kts | 297° |
| 2026-04-12 10:28 | 61.83889 | -0.35139 | 35605 ft | 523 kts | 297° |
| 2026-04-12 10:29 | 61.87561 | -0.48426 | 35606 ft | 521 kts | 297° |
| 2026-04-12 10:29 | 61.91209 | -0.61689 | 35598 ft | 521 kts | 297° |
| 2026-04-12 10:30 | 61.94847 | -0.75008 | 35596 ft | 521 kts | 297° |
| 2026-04-12 10:30 | 61.98464 | -0.88329 | 35592 ft | 521 kts | 297° |
| 2026-04-12 10:31 | 62.02078 | -1.01708 | 35592 ft | 522 kts | 297° |
| 2026-04-12 10:31 | 62.05696 | -1.15181 | 35581 ft | 525 kts | 297° |
| 2026-04-12 10:32 | 62.09316 | -1.28748 | 35590 ft | 528 kts | 297° |
| 2026-04-12 10:32 | 62.12947 | -1.42438 | 35564 ft | 531 kts | 296° |
| 2026-04-12 10:33 | 62.16584 | -1.56244 | 35482 ft | 533 kts | 296° |
| 2026-04-12 10:33 | 62.20206 | -1.70057 | 35479 ft | 531 kts | 296° |
| 2026-04-12 10:34 | 62.23772 | -1.83745 | 35528 ft | 528 kts | 296° |
| 2026-04-12 10:34 | 62.27335 | -1.97507 | 35520 ft | 526 kts | 296° |
| 2026-04-12 10:35 | 62.30868 | -2.11256 | 35523 ft | 525 kts | 296° |
| 2026-04-12 10:35 | 62.34379 | -2.24999 | 35526 ft | 525 kts | 296° |
| 2026-04-12 10:36 | 62.37882 | -2.38793 | 35525 ft | 525 kts | 296° |
| 2026-04-12 10:36 | 62.41370 | -2.52609 | 35537 ft | 525 kts | 296° |
| 2026-04-12 10:37 | 62.44856 | -2.66508 | 35537 ft | 526 kts | 295° |
| 2026-04-12 10:37 | 62.48326 | -2.80425 | 35542 ft | 527 kts | 295° |
| 2026-04-12 10:38 | 62.51792 | -2.94426 | 35546 ft | 528 kts | 295° |
| 2026-04-12 10:38 | 62.55247 | -3.08466 | 35553 ft | 529 kts | 295° |
| 2026-04-12 10:39 | 62.58703 | -3.22591 | 35516 ft | 530 kts | 295° |
| 2026-04-12 10:39 | 62.62143 | -3.36745 | 35460 ft | 530 kts | 295° |
| 2026-04-12 10:40 | 62.65568 | -3.50931 | 35451 ft | 529 kts | 295° |
| 2026-04-12 10:40 | 62.68969 | -3.65113 | 35444 ft | 528 kts | 295° |
| 2026-04-12 10:41 | 62.72342 | -3.79282 | 35437 ft | 526 kts | 295° |
| 2026-04-12 10:41 | 62.75697 | -3.93453 | 35438 ft | 525 kts | 295° |
| 2026-04-12 10:42 | 62.79034 | -4.07647 | 35430 ft | 525 kts | 295° |
| 2026-04-12 10:42 | 62.82336 | -4.21768 | 35427 ft | 525 kts | 294° |
| 2026-04-12 10:43 | 62.87303 | -4.43195 | 35414 ft | 526 kts | 294° |
| 2026-04-12 10:43 | 62.90600 | -4.57546 | 35409 ft | 527 kts | 294° |
| 2026-04-12 10:44 | 62.93888 | -4.71954 | 35413 ft | 528 kts | 294° |
| 2026-04-12 10:44 | 62.97163 | -4.86399 | 35405 ft | 528 kts | 294° |
| 2026-04-12 10:45 | 63.00428 | -5.00894 | 35404 ft | 529 kts | 294° |
| 2026-04-12 10:45 | 63.03679 | -5.15429 | 35398 ft | 529 kts | 294° |
| 2026-04-12 10:46 | 63.06914 | -5.29989 | 35393 ft | 529 kts | 294° |
| 2026-04-12 10:46 | 63.10113 | -5.44491 | 35393 ft | 529 kts | 294° |
| 2026-04-12 10:47 | 63.13335 | -5.59188 | 35393 ft | 528 kts | 294° |
| 2026-04-12 10:47 | 63.16499 | -5.73720 | 35396 ft | 528 kts | 293° |
| 2026-04-12 10:48 | 63.19668 | -5.88390 | 35386 ft | 528 kts | 293° |
| 2026-04-12 10:48 | 63.22829 | -6.03117 | 35382 ft | 529 kts | 293° |
| 2026-04-12 10:49 | 63.25975 | -6.17876 | 35385 ft | 529 kts | 293° |
| 2026-04-12 10:49 | 63.29110 | -6.32684 | 35384 ft | 530 kts | 293° |
| 2026-04-12 10:50 | 63.32229 | -6.47530 | 35383 ft | 530 kts | 293° |
| 2026-04-12 10:50 | 63.35330 | -6.62395 | 35375 ft | 530 kts | 292° |
| 2026-04-12 10:51 | 63.38415 | -6.77291 | 35375 ft | 530 kts | 292° |
| 2026-04-12 10:51 | 63.41486 | -6.92219 | 35375 ft | 529 kts | 292° |
| 2026-04-12 10:52 | 63.44536 | -7.07154 | 35375 ft | 528 kts | 292° |
| 2026-04-12 10:52 | 63.47565 | -7.22096 | 35375 ft | 528 kts | 292° |
| 2026-04-12 10:53 | 63.50587 | -7.37108 | 35374 ft | 527 kts | 292° |
| 2026-04-12 10:53 | 63.53562 | -7.51997 | 35390 ft | 527 kts | 292° |
| 2026-04-12 10:54 | 63.56541 | -7.67019 | 35396 ft | 527 kts | 292° |
| 2026-04-12 10:54 | 63.59510 | -7.82099 | 35395 ft | 528 kts | 292° |
| 2026-04-12 10:55 | 63.62463 | -7.97211 | 35397 ft | 529 kts | 291° |
| 2026-04-12 10:55 | 63.65402 | -8.12376 | 35395 ft | 529 kts | 291° |
| 2026-04-12 10:56 | 63.68330 | -8.27581 | 35398 ft | 529 kts | 291° |
| 2026-04-12 10:56 | 63.71242 | -8.42817 | 35402 ft | 529 kts | 291° |
| 2026-04-12 10:57 | 63.74135 | -8.58071 | 35401 ft | 529 kts | 291° |
| 2026-04-12 10:57 | 63.77009 | -8.73365 | 35406 ft | 528 kts | 291° |
| 2026-04-12 10:58 | 63.79848 | -8.88566 | 35402 ft | 527 kts | 291° |
| 2026-04-12 10:58 | 63.82682 | -9.03858 | 35408 ft | 526 kts | 291° |
| 2026-04-12 10:59 | 63.85488 | -9.19117 | 35403 ft | 524 kts | 291° |
| 2026-04-12 10:59 | 63.88269 | -9.34356 | 35389 ft | 522 kts | 290° |
| 2026-04-12 11:00 | 63.91028 | -9.49601 | 35400 ft | 521 kts | 290° |
| 2026-04-12 11:00 | 63.93765 | -9.64837 | 35403 ft | 521 kts | 290° |
| 2026-04-12 11:01 | 63.96488 | -9.80113 | 35403 ft | 521 kts | 290° |
| 2026-04-12 11:01 | 63.99199 | -9.95427 | 35403 ft | 522 kts | 290° |
| 2026-04-12 11:02 | 64.02287 | -10.10429 | 35412 ft | 524 kts | 296° |
| 2026-04-12 11:02 | 64.05695 | -10.25145 | 35407 ft | 525 kts | 297° |
| 2026-04-12 11:03 | 64.09111 | -10.39913 | 35403 ft | 526 kts | 296° |
| 2026-04-12 11:03 | 64.12486 | -10.54761 | 35401 ft | 526 kts | 296° |
| 2026-04-12 11:04 | 64.15828 | -10.69663 | 35404 ft | 526 kts | 296° |
| 2026-04-12 11:04 | 64.19152 | -10.84622 | 35402 ft | 526 kts | 296° |
| 2026-04-12 11:05 | 64.22458 | -10.99583 | 35401 ft | 525 kts | 296° |
| 2026-04-12 11:05 | 64.25746 | -11.14559 | 35405 ft | 525 kts | 296° |
| 2026-04-12 11:06 | 64.29016 | -11.29560 | 35403 ft | 524 kts | 296° |
| 2026-04-12 11:06 | 64.32266 | -11.44570 | 35398 ft | 523 kts | 296° |
| 2026-04-12 11:07 | 64.35494 | -11.59588 | 35410 ft | 521 kts | 295° |
| 2026-04-12 11:07 | 64.38696 | -11.74592 | 35404 ft | 520 kts | 295° |
| 2026-04-12 11:08 | 64.41876 | -11.89610 | 35405 ft | 519 kts | 295° |
| 2026-04-12 11:08 | 64.45015 | -12.04530 | 35390 ft | 519 kts | 295° |
| 2026-04-12 11:09 | 64.48164 | -12.19605 | 35394 ft | 519 kts | 295° |
| 2026-04-12 11:09 | 64.51297 | -12.34708 | 35392 ft | 519 kts | 295° |
| 2026-04-12 11:10 | 64.54414 | -12.49853 | 35395 ft | 520 kts | 295° |
| 2026-04-12 11:10 | 64.57515 | -12.65024 | 35393 ft | 520 kts | 295° |
| 2026-04-12 11:11 | 64.60605 | -12.80257 | 35393 ft | 520 kts | 294° |
| 2026-04-12 11:11 | 64.63684 | -12.95543 | 35393 ft | 521 kts | 294° |
| 2026-04-12 11:12 | 64.66746 | -13.10860 | 35397 ft | 521 kts | 294° |
| 2026-04-12 11:12 | 64.69796 | -13.26223 | 35390 ft | 521 kts | 294° |
| 2026-04-12 11:13 | 64.72832 | -13.41622 | 35395 ft | 521 kts | 294° |
| 2026-04-12 11:13 | 64.75828 | -13.56950 | 35394 ft | 521 kts | 294° |
| 2026-04-12 11:14 | 64.78821 | -13.72386 | 35403 ft | 520 kts | 294° |
| 2026-04-12 11:14 | 64.81314 | -13.85326 | 35404 ft | 519 kts | 294° |
| 2026-04-12 11:15 | 64.84276 | -14.00809 | 35403 ft | 519 kts | 294° |
| 2026-04-12 11:15 | 64.87204 | -14.16228 | 35413 ft | 519 kts | 293° |
| 2026-04-12 11:16 | 64.90129 | -14.31752 | 35406 ft | 519 kts | 293° |
| 2026-04-12 11:16 | 64.93036 | -14.47296 | 35401 ft | 518 kts | 293° |
| 2026-04-12 11:17 | 64.95920 | -14.62847 | 35407 ft | 518 kts | 293° |
| 2026-04-12 11:17 | 64.98792 | -14.78450 | 35413 ft | 519 kts | 292° |
| 2026-04-12 11:18 | 65.01653 | -14.94110 | 35413 ft | 518 kts | 292° |
| 2026-04-12 11:18 | 65.04493 | -15.09783 | 35411 ft | 518 kts | 292° |
| 2026-04-12 11:19 | 65.07316 | -15.25482 | 35408 ft | 518 kts | 292° |
| 2026-04-12 11:19 | 65.10120 | -15.41208 | 35416 ft | 517 kts | 292° |
| 2026-04-12 11:20 | 65.12910 | -15.56984 | 35410 ft | 517 kts | 292° |
| 2026-04-12 11:20 | 65.15680 | -15.72767 | 35415 ft | 517 kts | 291° |
| 2026-04-12 11:21 | 65.18429 | -15.88554 | 35416 ft | 517 kts | 291° |
| 2026-04-12 11:21 | 65.21169 | -16.04413 | 35417 ft | 517 kts | 291° |
| 2026-04-12 11:22 | 65.23888 | -16.20279 | 35424 ft | 517 kts | 291° |
| 2026-04-12 11:22 | 65.26570 | -16.36073 | 35427 ft | 517 kts | 291° |
| 2026-04-12 11:23 | 65.29256 | -16.52014 | 35434 ft | 517 kts | 291° |
| 2026-04-12 11:23 | 65.31923 | -16.67978 | 35448 ft | 516 kts | 291° |
| 2026-04-12 11:24 | 65.34564 | -16.83923 | 35461 ft | 516 kts | 291° |
| 2026-04-12 11:24 | 65.37192 | -16.99914 | 35472 ft | 515 kts | 290° |
| 2026-04-12 11:25 | 65.39802 | -17.15938 | 35475 ft | 515 kts | 290° |
| 2026-04-12 11:25 | 65.42389 | -17.31945 | 35483 ft | 514 kts | 290° |
| 2026-04-12 11:26 | 65.44953 | -17.47959 | 35489 ft | 514 kts | 290° |
| 2026-04-12 11:26 | 65.47501 | -17.64009 | 35487 ft | 514 kts | 290° |
| 2026-04-12 11:27 | 65.50033 | -17.80096 | 35493 ft | 514 kts | 290° |
| 2026-04-12 11:27 | 65.52550 | -17.96219 | 35502 ft | 513 kts | 289° |
| 2026-04-12 11:28 | 65.55046 | -18.12342 | 35502 ft | 513 kts | 289° |
| 2026-04-12 11:28 | 65.57528 | -18.28530 | 35498 ft | 514 kts | 289° |
| 2026-04-12 11:29 | 65.59998 | -18.44777 | 35495 ft | 515 kts | 289° |
| 2026-04-12 11:29 | 65.62448 | -18.61052 | 35498 ft | 514 kts | 289° |
| 2026-04-12 11:30 | 65.64877 | -18.77311 | 35493 ft | 514 kts | 289° |
| 2026-04-12 11:30 | 65.67298 | -18.93682 | 35807 ft | 517 kts | 289° |
| 2026-04-12 11:31 | 65.68504 | -19.01890 | 36182 ft | 516 kts | 289° |
| 2026-04-12 11:31 | 65.69701 | -19.10070 | 36569 ft | 514 kts | 289° |
| 2026-04-12 11:31 | 65.70890 | -19.18234 | 36980 ft | 511 kts | 289° |
| 2026-04-12 11:31 | 65.72050 | -19.26254 | 37464 ft | 507 kts | 288° |
| 2026-04-12 11:32 | 65.74384 | -19.42460 | 37509 ft | 507 kts | 288° |
| 2026-04-12 11:32 | 65.76685 | -19.58580 | 37507 ft | 502 kts | 288° |
| 2026-04-12 11:33 | 65.78957 | -19.74668 | 37519 ft | 501 kts | 288° |
| 2026-04-12 11:33 | 65.81205 | -19.90714 | 37529 ft | 501 kts | 288° |
| 2026-04-12 11:34 | 65.83441 | -20.06830 | 37537 ft | 502 kts | 288° |
| 2026-04-12 11:34 | 65.85663 | -20.22994 | 37541 ft | 503 kts | 287° |
| 2026-04-12 11:35 | 65.87876 | -20.39255 | 37559 ft | 504 kts | 287° |
| 2026-04-12 11:35 | 65.90074 | -20.55568 | 37560 ft | 505 kts | 287° |
| 2026-04-12 11:36 | 65.92253 | -20.71887 | 37567 ft | 505 kts | 287° |
| 2026-04-12 11:36 | 65.94416 | -20.88217 | 37586 ft | 503 kts | 287° |
| 2026-04-12 11:37 | 65.96552 | -21.04525 | 37601 ft | 501 kts | 287° |
| 2026-04-12 11:37 | 65.98662 | -21.20798 | 37601 ft | 499 kts | 287° |
| 2026-04-12 11:38 | 66.00747 | -21.37028 | 37615 ft | 498 kts | 287° |
| 2026-04-12 11:38 | 66.02800 | -21.53152 | 37618 ft | 497 kts | 287° |
| 2026-04-12 11:39 | 66.09838 | -22.09732 | 37650 ft | 496 kts | 286° |
| 2026-04-12 11:39 | 66.17671 | -22.75147 | 37672 ft | 496 kts | 285° |
| 2026-04-12 11:40 | 66.25217 | -23.40881 | 37681 ft | 496 kts | 285° |
| 2026-04-12 11:40 | 66.32502 | -24.07171 | 37651 ft | 497 kts | 285° |
| 2026-04-12 11:41 | 66.39495 | -24.73759 | 37629 ft | 497 kts | 284° |
| 2026-04-12 11:41 | 66.46147 | -25.40158 | 37643 ft | 495 kts | 283° |
| 2026-04-12 11:42 | 66.52573 | -26.07495 | 37651 ft | 492 kts | 282° |
| 2026-04-12 11:43 | 66.61517 | -27.07420 | 37677 ft | 489 kts | 281° |
| 2026-04-12 11:43 | 66.67126 | -27.74442 | 37732 ft | 488 kts | 281° |
| 2026-04-12 11:44 | 66.72437 | -28.41603 | 37739 ft | 487 kts | 280° |
| 2026-04-12 11:44 | 66.77452 | -29.08920 | 37780 ft | 486 kts | 279° |
| 2026-04-12 11:45 | 66.82179 | -29.76510 | 37828 ft | 486 kts | 279° |
| 2026-04-12 11:45 | 66.86599 | -30.44096 | 37865 ft | 485 kts | 278° |
| 2026-04-12 11:46 | 66.90737 | -31.11992 | 37904 ft | 485 kts | 278° |
| 2026-04-12 11:46 | 66.94570 | -31.79895 | 37938 ft | 483 kts | 277° |
| 2026-04-12 11:47 | 66.98110 | -32.47937 | 37980 ft | 482 kts | 276° |
| 2026-04-12 11:47 | 67.01346 | -33.15899 | 37993 ft | 481 kts | 276° |
| 2026-04-12 11:48 | 67.04283 | -33.83832 | 38020 ft | 479 kts | 275° |
| 2026-04-12 11:48 | 67.06921 | -34.51678 | 38042 ft | 479 kts | 275° |
| 2026-04-12 11:49 | 67.09275 | -35.19841 | 38065 ft | 478 kts | 274° |
| 2026-04-12 11:49 | 67.11332 | -35.87891 | 38059 ft | 477 kts | 273° |
| 2026-04-12 11:50 | 67.13084 | -36.55431 | 38070 ft | 476 kts | 272° |
| 2026-04-12 11:50 | 67.14555 | -37.23294 | 38075 ft | 474 kts | 272° |
| 2026-04-12 11:51 | 67.15736 | -37.91059 | 38101 ft | 473 kts | 271° |
| 2026-04-12 11:51 | 67.16628 | -38.58683 | 38111 ft | 473 kts | 271° |
| 2026-04-12 11:52 | 67.17232 | -39.26312 | 38102 ft | 472 kts | 270° |
| 2026-04-12 11:52 | 67.17552 | -39.93992 | 38101 ft | 472 kts | 270° |
| 2026-04-12 11:53 | 67.17586 | -40.61641 | 38100 ft | 472 kts | 269° |
| 2026-04-12 11:53 | 67.17336 | -41.29200 | 38105 ft | 471 kts | 268° |
| 2026-04-12 11:54 | 67.16800 | -41.96729 | 38108 ft | 471 kts | 268° |
| 2026-04-12 11:54 | 67.15983 | -42.64033 | 38111 ft | 470 kts | 267° |
| 2026-04-12 11:55 | 67.14891 | -43.30806 | 38120 ft | 470 kts | 266° |
| 2026-04-12 11:55 | 67.13514 | -43.97841 | 38124 ft | 470 kts | 265° |
| 2026-04-12 11:56 | 67.11860 | -44.64690 | 38148 ft | 469 kts | 264° |
| 2026-04-12 11:56 | 67.09937 | -45.31085 | 38126 ft | 470 kts | 264° |
| 2026-04-12 11:57 | 67.08476 | -45.76069 | 38170 ft | 468 kts | 263° |
| 2026-04-12 11:57 | 67.07902 | -45.92710 | 38174 ft | 466 kts | 263° |
| 2026-04-12 11:57 | 67.07616 | -46.00866 | 37791 ft | 451 kts | 263° |
| 2026-04-12 11:58 | 67.07335 | -46.08769 | 37423 ft | 441 kts | 263° |
| 2026-04-12 11:58 | 67.07053 | -46.16580 | 36991 ft | 437 kts | 263° |
| 2026-04-12 11:58 | 67.06770 | -46.24295 | 36572 ft | 433 kts | 263° |
| 2026-04-12 11:58 | 67.06390 | -46.34448 | 36007 ft | 428 kts | 263° |
| 2026-04-12 11:59 | 67.05812 | -46.49585 | 35108 ft | 423 kts | 263° |
| 2026-04-12 11:59 | 67.05232 | -46.64392 | 34231 ft | 417 kts | 262° |
| 2026-04-12 11:59 | 67.04643 | -46.79123 | 33353 ft | 411 kts | 262° |
| 2026-04-12 11:59 | 67.04050 | -46.93577 | 32498 ft | 406 kts | 262° |
| 2026-04-12 12:00 | 67.03454 | -47.07823 | 31638 ft | 400 kts | 262° |
| 2026-04-12 12:00 | 67.02854 | -47.21874 | 30804 ft | 395 kts | 262° |
| 2026-04-12 12:00 | 67.02254 | -47.35619 | 29958 ft | 389 kts | 262° |
| 2026-04-12 12:00 | 67.01645 | -47.49304 | 29113 ft | 385 kts | 262° |
| 2026-04-12 12:01 | 67.01031 | -47.62816 | 28263 ft | 380 kts | 261° |
| 2026-04-12 12:01 | 67.00412 | -47.76177 | 27419 ft | 376 kts | 261° |
| 2026-04-12 12:01 | 66.99993 | -47.85094 | 26873 ft | 373 kts | 261° |
| 2026-04-12 12:01 | 66.99365 | -47.98252 | 26016 ft | 370 kts | 261° |
| 2026-04-12 12:02 | 66.98735 | -48.11224 | 25191 ft | 366 kts | 260° |
| 2026-04-12 12:02 | 66.98103 | -48.24030 | 24382 ft | 362 kts | 260° |
| 2026-04-12 12:02 | 66.97464 | -48.36727 | 23568 ft | 358 kts | 260° |
| 2026-04-12 12:02 | 66.96822 | -48.49299 | 22765 ft | 355 kts | 259° |
| 2026-04-12 12:03 | 66.96174 | -48.61771 | 21958 ft | 353 kts | 260° |
| 2026-04-12 12:03 | 66.95607 | -48.72553 | 21260 ft | 350 kts | 259° |
| 2026-04-12 12:03 | 66.95280 | -48.78705 | 20851 ft | 349 kts | 259° |
| 2026-04-12 12:03 | 66.94952 | -48.84835 | 20442 ft | 348 kts | 259° |
| 2026-04-12 12:04 | 66.94622 | -48.90935 | 20044 ft | 347 kts | 259° |
| 2026-04-12 12:04 | 66.94293 | -48.97005 | 19638 ft | 345 kts | 259° |
| 2026-04-12 12:04 | 66.93961 | -49.03067 | 19234 ft | 344 kts | 259° |
| 2026-04-12 12:04 | 66.93628 | -49.09106 | 18833 ft | 343 kts | 259° |
| 2026-04-12 12:05 | 66.93298 | -49.15041 | 18434 ft | 342 kts | 259° |
| 2026-04-12 12:05 | 66.92962 | -49.21046 | 18016 ft | 341 kts | 259° |
| 2026-04-12 12:05 | 66.92626 | -49.27013 | 17630 ft | 340 kts | 259° |
| 2026-04-12 12:05 | 66.92284 | -49.33048 | 17216 ft | 339 kts | 259° |
| 2026-04-12 12:06 | 66.91946 | -49.38979 | 16825 ft | 338 kts | 259° |
| 2026-04-12 12:06 | 66.91609 | -49.44815 | 16428 ft | 337 kts | 259° |
| 2026-04-12 12:06 | 66.91268 | -49.50704 | 16046 ft | 335 kts | 259° |
| 2026-04-12 12:06 | 66.90926 | -49.56569 | 15647 ft | 334 kts | 259° |
| 2026-04-12 12:07 | 66.90594 | -49.62254 | 15233 ft | 314 kts | 259° |
| 2026-04-12 12:07 | 66.90275 | -49.67690 | 14919 ft | 307 kts | 259° |
| 2026-04-12 12:07 | 66.89966 | -49.72917 | 14406 ft | 297 kts | 259° |
| 2026-04-12 12:07 | 66.89654 | -49.78141 | 14037 ft | 297 kts | 259° |
| 2026-04-12 12:08 | 66.89344 | -49.83288 | 13775 ft | 292 kts | 259° |
| 2026-04-12 12:08 | 66.89036 | -49.88372 | 13471 ft | 290 kts | 259° |
| 2026-04-12 12:08 | 66.88728 | -49.93436 | 13138 ft | 289 kts | 259° |
| 2026-04-12 12:08 | 66.88420 | -49.98467 | 12863 ft | 285 kts | 259° |
| 2026-04-12 12:09 | 66.88122 | -50.03337 | 12464 ft | 273 kts | 258° |
| 2026-04-12 12:09 | 66.87831 | -50.08059 | 11797 ft | 272 kts | 258° |
| 2026-04-12 12:09 | 66.87532 | -50.12882 | 11412 ft | 275 kts | 258° |
| 2026-04-12 12:09 | 66.87233 | -50.17652 | 11180 ft | 271 kts | 258° |
| 2026-04-12 12:10 | 66.86936 | -50.22363 | 10895 ft | 269 kts | 259° |
| 2026-04-12 12:10 | 66.86642 | -50.27042 | 10557 ft | 269 kts | 259° |
| 2026-04-12 12:10 | 66.86345 | -50.31741 | 10243 ft | 268 kts | 259° |
| 2026-04-12 12:10 | 66.86048 | -50.36408 | 9926 ft | 267 kts | 259° |
| 2026-04-12 12:11 | 66.85755 | -50.41072 | 9651 ft | 268 kts | 259° |
| 2026-04-12 12:11 | 66.85456 | -50.45709 | 9403 ft | 265 kts | 259° |
| 2026-04-12 12:11 | 66.85154 | -50.50326 | 9091 ft | 264 kts | 259° |
| 2026-04-12 12:11 | 66.84854 | -50.54932 | 8777 ft | 265 kts | 260° |
| 2026-04-12 12:12 | 66.84556 | -50.59524 | 8453 ft | 263 kts | 260° |
| 2026-04-12 12:12 | 66.84259 | -50.64033 | 8132 ft | 262 kts | 259° |
| 2026-04-12 12:12 | 66.83957 | -50.68642 | 7804 ft | 261 kts | 259° |
| 2026-04-12 12:12 | 66.83659 | -50.73111 | 7537 ft | 260 kts | 259° |
| 2026-04-12 12:13 | 66.83364 | -50.77621 | 7263 ft | 257 kts | 259° |
| 2026-04-12 12:13 | 66.83066 | -50.82076 | 7014 ft | 254 kts | 259° |
| 2026-04-12 12:13 | 66.82777 | -50.86420 | 6866 ft | 246 kts | 259° |
| 2026-04-12 12:13 | 66.82494 | -50.90633 | 6708 ft | 239 kts | 259° |
| 2026-04-12 12:14 | 66.82218 | -50.94754 | 6537 ft | 235 kts | 259° |
| 2026-04-12 12:14 | 66.81945 | -50.98800 | 6315 ft | 231 kts | 259° |
| 2026-04-12 12:14 | 66.81671 | -51.02825 | 5994 ft | 232 kts | 259° |
| 2026-04-12 12:14 | 66.81392 | -51.06865 | 5759 ft | 232 kts | 259° |
| 2026-04-12 12:15 | 66.81371 | -51.10817 | 5502 ft | 222 kts | 287° |
| 2026-04-12 12:15 | 66.82174 | -51.13968 | 5432 ft | 212 kts | 318° |
| 2026-04-12 12:15 | 66.83415 | -51.16187 | 5162 ft | 223 kts | 331° |
| 2026-04-12 12:15 | 66.84749 | -51.18029 | 4884 ft | 214 kts | 332° |
| 2026-04-12 12:16 | 66.86047 | -51.19785 | 4648 ft | 207 kts | 331° |
| 2026-04-12 12:16 | 66.87294 | -51.21509 | 4414 ft | 201 kts | 332° |
| 2026-04-12 12:16 | 66.88562 | -51.22955 | 4179 ft | 200 kts | 352° |
| 2026-04-12 12:16 | 66.89897 | -51.22422 | 3966 ft | 193 kts | 34° |
| 2026-04-12 12:17 | 66.90769 | -51.20014 | 3985 ft | 185 kts | 58° |
| 2026-04-12 12:17 | 66.91420 | -51.17157 | 3874 ft | 184 kts | 61° |
| 2026-04-12 12:17 | 66.92031 | -51.14330 | 3795 ft | 183 kts | 62° |
| 2026-04-12 12:17 | 66.92637 | -51.11499 | 3575 ft | 178 kts | 62° |
| 2026-04-12 12:18 | 66.93200 | -51.08868 | 3427 ft | 163 kts | 62° |
| 2026-04-12 12:18 | 66.93697 | -51.06543 | 3188 ft | 150 kts | 62° |
| 2026-04-12 12:18 | 66.94175 | -51.04304 | 3039 ft | 141 kts | 62° |
| 2026-04-12 12:18 | 66.94641 | -51.02125 | 2874 ft | 139 kts | 62° |
| 2026-04-12 12:19 | 66.95108 | -50.99944 | 2721 ft | 139 kts | 62° |
| 2026-04-12 12:19 | 66.95570 | -50.97779 | 2668 ft | 140 kts | 62° |
| 2026-04-12 12:19 | 66.96036 | -50.95597 | 2620 ft | 141 kts | 62° |
| 2026-04-12 12:19 | 66.96504 | -50.93403 | 2488 ft | 139 kts | 62° |
| 2026-04-12 12:20 | 66.96962 | -50.91262 | 2064 ft | 137 kts | 62° |
| 2026-04-12 12:20 | 66.97414 | -50.89140 | 1569 ft | 138 kts | 62° |
| 2026-04-12 12:20 | 66.97850 | -50.87048 | 1385 ft | 127 kts | 63° |
| 2026-04-12 12:20 | 66.98311 | -50.85124 | 1067 ft | 131 kts | 59° |
| 2026-04-12 12:21 | 66.98740 | -50.83080 | 889 ft | 131 kts | 64° |
| 2026-04-12 12:21 | 66.99163 | -50.81073 | 811 ft | 127 kts | 64° |
| 2026-04-12 12:21 | 66.99579 | -50.78931 | 749 ft | 135 kts | 60° |
| 2026-04-12 12:21 | 67.00050 | -50.76802 | 505 ft | 139 kts | 63° |
| 2026-04-12 12:22 | 67.00492 | -50.74692 | 220 ft | 131 kts | 62° |
| 2026-04-12 12:22 | 67.00893 | -50.72791 | 136 ft | 109 kts | 62° |
| 2026-04-12 12:22 | 67.01106 | -50.71719 | 147 ft | 36 kts | 63° |
| 2026-04-12 12:22 | 67.01230 | -50.71135 | 150 ft | 37 kts | 60° |
| 2026-04-12 12:23 | 67.01316 | -50.70738 | 156 ft | 17 kts | 61° |
| 2026-04-12 12:23 | 67.01358 | -50.70494 | 158 ft | 13 kts | 88° |
| 2026-04-12 12:23 | 67.01291 | -50.70336 | 159 ft | 15 kts | 161° |
| 2026-04-12 12:23 | 67.01177 | -50.70253 | 158 ft | 18 kts | 185° |
| 2026-04-12 12:24 | 67.01062 | -50.70422 | 155 ft | 14 kts | 230° |
| 2026-04-12 12:24 | 67.01040 | -50.70510 | 154 ft | 4 kts | 240° |
| 2026-04-12 12:24 | 67.01018 | -50.70624 | 153 ft | 10 kts | 245° |
| 2026-04-12 12:24 | 67.00949 | -50.70684 | 151 ft | 13 kts | 162° |
| 2026-04-12 12:25 | 67.00852 | -50.70692 | 150 ft | 16 kts | 223° |
| 2026-04-12 12:25 | 67.00809 | -50.70932 | 147 ft | 9 kts | 271° |
| 2026-04-12 12:25 | 67.00817 | -50.70989 | 147 ft | 2 kts | 293° |
| 2026-04-12 12:25 | 67.00822 | -50.71017 | 147 ft | 0 kts | 293° |